Thunder radar more information blitzortung!


Radar de pluja more information rain snow radar


Visita la nostra xarxa de llocs de meteo:

Template documentation
and downloads

And another site



Wind From: 11-12-2017 11:00 Until: 14:59 warning for: Wind Level: Yellow info button

Pagina Historial Weather Underground text

Diari Resum Octubre 5, 2017 Unitats:  Tant    Imperial   Mètric
« Previous Dia
SegĂźent Dia »
Diari Setmana Mensual Anual Personalitzada
  Maxima: Minima: Media:
Temperatura: 83.5 °F /  28.6 °C 58.6 °F /  14.8 °C 72.5 °F /  22.5 °C
Punt de rosada: 64.9 °F /  18.3 °C 55.9 °F /  13.3 °C 62.1 °F /  16.7 °C
Humitat: 93 % 51 % 72 %
Wind Speed: 11.5 mph /  18.5 km/h - 3.7 mph /  6 km/h
RĂ fegues de vent: 11.5 mph /  18.5 km/h - -
Vent:- - SW
Pression baro: 30.3 in /  1024.9 hPa 30 in /  1016.8 hPa -
Precipitacions: 0 in /  0.0 mm    
Historical Graphs
 
 
Dades de taula per Octubre 5, 2017
Temps Temperatura Punt de rosada Pression baro Vent Wind Speed RĂ fegues de vent Humitat Rainfall Rate (Hourly)
00:00 62.8 °F /  17.1 °C 58.8 °F /  14.9 °C 30.2 in /  1021.9 hPa Calm     87 % 0 in /  0.0 mm
00:04 66.9 °F /  19.4 °C 62.6 °F /  17.0 °C 30.3 in /  1024.9 hPa Calm     86 % 0 in /  0.0 mm
00:10 62.6 °F /  17.0 °C 58.6 °F /  14.8 °C 30.2 in /  1021.9 hPa WNW 1 mph /  1.6 km/h 1 mph /  1.6 km/h 87 % 0 in /  0.0 mm
00:20 62.2 °F /  16.8 °C 58.6 °F /  14.8 °C 30.2 in /  1021.9 hPa Calm   1 mph /  1.6 km/h 88 % 0 in /  0.0 mm
00:30 62.1 °F /  16.7 °C 58.5 °F /  14.7 °C 30.2 in /  1022.9 hPa Calm     88 % 0 in /  0.0 mm
00:40 61.7 °F /  16.5 °C 58.1 °F /  14.5 °C 30.2 in /  1022.9 hPa Calm     88 % 0 in /  0.0 mm
01:00 61 °F /  16.1 °C 57.4 °F /  14.1 °C 30.2 in /  1021.9 hPa Calm     88 % 0 in /  0.0 mm
01:10 60.8 °F /  16.0 °C 57.6 °F /  14.2 °C 30.2 in /  1021.9 hPa Calm     89 % 0 in /  0.0 mm
01:20 60.4 °F /  15.8 °C 57.2 °F /  14.0 °C 30.2 in /  1021.9 hPa Calm     89 % 0 in /  0.0 mm
01:30 60.4 °F /  15.8 °C 57.2 °F /  14.0 °C 30.2 in /  1021.9 hPa Calm     89 % 0 in /  0.0 mm
01:40 60.1 °F /  15.6 °C 56.8 °F /  13.8 °C 30.2 in /  1021.9 hPa NW 1 mph /  1.6 km/h 2 mph /  3.2 km/h 89 % 0 in /  0.0 mm
01:50 59.9 °F /  15.5 °C 57 °F /  13.9 °C 30.2 in /  1021.9 hPa Calm     90 % 0 in /  0.0 mm
02:00 59.5 °F /  15.3 °C 56.3 °F /  13.5 °C 30.2 in /  1021.9 hPa Calm     89 % 0 in /  0.0 mm
02:10 59.2 °F /  15.1 °C 56.1 °F /  13.4 °C 30.2 in /  1021.9 hPa Calm     90 % 0 in /  0.0 mm
02:20 59.2 °F /  15.1 °C 56.1 °F /  13.4 °C 30.2 in /  1021.9 hPa Calm     90 % 0 in /  0.0 mm
02:50 59 °F /  15.0 °C 56.1 °F /  13.4 °C 30.2 in /  1021.9 hPa Calm     90 % 0 in /  0.0 mm
03:00 58.8 °F /  14.9 °C 56.1 °F /  13.4 °C 30.2 in /  1021.9 hPa Calm     91 % 0 in /  0.0 mm
03:10 58.6 °F /  14.8 °C 55.9 °F /  13.3 °C 30.2 in /  1021.9 hPa Calm     91 % 0 in /  0.0 mm
03:20 58.8 °F /  14.9 °C 56.1 °F /  13.4 °C 30.2 in /  1021.9 hPa Calm     91 % 0 in /  0.0 mm
03:30 58.8 °F /  14.9 °C 56.5 °F /  13.6 °C 30.2 in /  1021.9 hPa Calm     92 % 0 in /  0.0 mm
03:40 60.1 °F /  15.6 °C 57.9 °F /  14.4 °C 30.2 in /  1021.9 hPa Calm     93 % 0 in /  0.0 mm
03:50 60.1 °F /  15.6 °C 57.7 °F /  14.3 °C 30.2 in /  1020.9 hPa Calm   1 mph /  1.6 km/h 92 % 0 in /  0.0 mm
04:00 59.7 °F /  15.4 °C 57 °F /  13.9 °C 30.2 in /  1021.9 hPa South 1 mph /  1.6 km/h 2 mph /  3.2 km/h 91 % 0 in /  0.0 mm
04:10 60.1 °F /  15.6 °C 57.4 °F /  14.1 °C 30.2 in /  1021.9 hPa SW 1 mph /  1.6 km/h 2 mph /  3.2 km/h 91 % 0 in /  0.0 mm
04:20 61.7 °F /  16.5 °C 59.4 °F /  15.2 °C 30.2 in /  1021.9 hPa Calm     92 % 0 in /  0.0 mm
04:30 63.3 °F /  17.4 °C 60.3 °F /  15.7 °C 30.2 in /  1021.9 hPa SSW 1 mph /  1.6 km/h 2 mph /  3.2 km/h 90 % 0 in /  0.0 mm
04:40 63.3 °F /  17.4 °C 59.7 °F /  15.4 °C 30.2 in /  1021.9 hPa South 1 mph /  1.6 km/h 2 mph /  3.2 km/h 88 % 0 in /  0.0 mm
04:50 65.1 °F /  18.4 °C 61.2 °F /  16.2 °C 30.2 in /  1021.9 hPa SSW 1 mph /  1.6 km/h 2 mph /  3.2 km/h 87 % 0 in /  0.0 mm
05:00 66.2 °F /  19.0 °C 61.2 °F /  16.2 °C 30.2 in /  1021.9 hPa SSE 1 mph /  1.6 km/h 2 mph /  3.2 km/h 84 % 0 in /  0.0 mm
05:10 67.6 °F /  19.8 °C 62.2 °F /  16.8 °C 30.2 in /  1021.9 hPa SSE 1 mph /  1.6 km/h 2 mph /  3.2 km/h 83 % 0 in /  0.0 mm
05:20 69.3 °F /  20.7 °C 62.8 °F /  17.1 °C 30.2 in /  1021.9 hPa SE 1 mph /  1.6 km/h 2 mph /  3.2 km/h 80 % 0 in /  0.0 mm
05:30 70.2 °F /  21.2 °C 63 °F /  17.2 °C 30.2 in /  1020.9 hPa ESE 1 mph /  1.6 km/h 3 mph /  4.8 km/h 78 % 0 in /  0.0 mm
05:40 71.2 °F /  21.8 °C 63.7 °F /  17.6 °C 30.2 in /  1020.9 hPa SSE 1 mph /  1.6 km/h 2 mph /  3.2 km/h 77 % 0 in /  0.0 mm
05:45 71.6 °F /  22.0 °C 64 °F /  17.8 °C 30.2 in /  1020.9 hPa Calm   2 mph /  3.2 km/h 77 % 0 in /  0.0 mm
10:45 72.1 °F /  22.3 °C 64.6 °F /  18.1 °C 30.2 in /  1021.9 hPa South 3.3 mph /  5.3 km/h 3.3 mph /  5.3 km/h 77 % 0 in /  0.0 mm
10:50 72.1 °F /  22.3 °C 64.2 °F /  17.9 °C 30.2 in /  1021.9 hPa WSW 1.2 mph /  1.9 km/h 1.2 mph /  1.9 km/h 76 % 0 in /  0.0 mm
10:55 72.9 °F /  22.7 °C 64.6 °F /  18.1 °C 30.2 in /  1021.9 hPa SSE 2.3 mph /  3.7 km/h 2.3 mph /  3.7 km/h 75 % 0 in /  0.0 mm
11:05 72.9 °F /  22.7 °C 64 °F /  17.8 °C 30.2 in /  1021.9 hPa South 4.6 mph /  7.4 km/h 4.6 mph /  7.4 km/h 74 % 0 in /  0.0 mm
11:10 73.4 °F /  23.0 °C 64.2 °F /  17.9 °C 30.2 in /  1021.9 hPa SW 4.6 mph /  7.4 km/h 4.6 mph /  7.4 km/h 73 % 0 in /  0.0 mm
11:15 72.7 °F /  22.6 °C 63.5 °F /  17.5 °C 30.2 in /  1021.9 hPa SW 3.5 mph /  5.6 km/h 3.5 mph /  5.6 km/h 73 % 0 in /  0.0 mm
11:20 73.4 °F /  23.0 °C 63.9 °F /  17.7 °C 30.2 in /  1021.9 hPa West 2.3 mph /  3.7 km/h 2.3 mph /  3.7 km/h 72 % 0 in /  0.0 mm
11:25 73.4 °F /  23.0 °C 63.9 °F /  17.7 °C 30.2 in /  1021.9 hPa ESE 1.6 mph /  2.6 km/h 1.6 mph /  2.6 km/h 72 % 0 in /  0.0 mm
11:30 74.8 °F /  23.8 °C 64.8 °F /  18.2 °C 30.2 in /  1021.9 hPa SW 2.3 mph /  3.7 km/h 2.3 mph /  3.7 km/h 71 % 0 in /  0.0 mm
11:35 75 °F /  23.9 °C 64.9 °F /  18.3 °C 30.2 in /  1021.9 hPa SW 5.8 mph /  9.3 km/h 5.8 mph /  9.3 km/h 71 % 0 in /  0.0 mm
11:40 74.7 °F /  23.7 °C 64.2 °F /  17.9 °C 30.2 in /  1021.9 hPa WSW 2.3 mph /  3.7 km/h 2.4 mph /  3.9 km/h 70 % 0 in /  0.0 mm
11:45 75.2 °F /  24.0 °C 63.9 °F /  17.7 °C 30.2 in /  1021.9 hPa West 3.8 mph /  6.1 km/h 3.8 mph /  6.1 km/h 68 % 0 in /  0.0 mm
11:50 75.4 °F /  24.1 °C 64 °F /  17.8 °C 30.2 in /  1021.9 hPa WSW 5.8 mph /  9.3 km/h 5.8 mph /  9.3 km/h 68 % 0 in /  0.0 mm
11:55 75.4 °F /  24.1 °C 64 °F /  17.8 °C 30.2 in /  1021.9 hPa SW 5.8 mph /  9.3 km/h 5.8 mph /  9.3 km/h 68 % 0 in /  0.0 mm
12:00 76.5 °F /  24.7 °C 64.8 °F /  18.2 °C 30.2 in /  1021.9 hPa WNW 4.6 mph /  7.4 km/h 4.6 mph /  7.4 km/h 67 % 0 in /  0.0 mm
12:05 76.3 °F /  24.6 °C 64.6 °F /  18.1 °C 30.2 in /  1021.9 hPa SSW 4.6 mph /  7.4 km/h 4.6 mph /  7.4 km/h 67 % 0 in /  0.0 mm
12:10 77 °F /  25.0 °C 63.9 °F /  17.7 °C 30.2 in /  1021.9 hPa SSW 2.3 mph /  3.7 km/h 2.3 mph /  3.7 km/h 64 % 0 in /  0.0 mm
12:15 76.8 °F /  24.9 °C 64.2 °F /  17.9 °C 30.2 in /  1021.9 hPa NW 3.3 mph /  5.3 km/h 3.3 mph /  5.3 km/h 65 % 0 in /  0.0 mm
12:25 77.4 °F /  25.2 °C 63.9 °F /  17.7 °C 30.2 in /  1021.9 hPa WSW 5.8 mph /  9.3 km/h 5.8 mph /  9.3 km/h 63 % 0 in /  0.0 mm
12:30 77.4 °F /  25.2 °C 63.9 °F /  17.7 °C 30.2 in /  1021.9 hPa SW 5.8 mph /  9.3 km/h 5.8 mph /  9.3 km/h 63 % 0 in /  0.0 mm
12:35 77.5 °F /  25.3 °C 63.5 °F /  17.5 °C 30.2 in /  1021.9 hPa West 5.8 mph /  9.3 km/h 5.8 mph /  9.3 km/h 62 % 0 in /  0.0 mm
12:50 79.3 °F /  26.3 °C 64.8 °F /  18.2 °C 30.2 in /  1020.9 hPa SSE 4.7 mph /  7.6 km/h 4.7 mph /  7.6 km/h 61 % 0 in /  0.0 mm
12:55 79.2 °F /  26.2 °C 63.7 °F /  17.6 °C 30.2 in /  1020.9 hPa West 4.6 mph /  7.4 km/h 4.6 mph /  7.4 km/h 59 % 0 in /  0.0 mm
13:00 80.1 °F /  26.7 °C 64 °F /  17.8 °C 30.2 in /  1020.9 hPa South 4.3 mph /  6.9 km/h 4.3 mph /  6.9 km/h 58 % 0 in /  0.0 mm
13:05 79.2 °F /  26.2 °C 63.1 °F /  17.3 °C 30.2 in /  1020.9 hPa WSW 7.6 mph /  12.2 km/h 7.6 mph /  12.2 km/h 58 % 0 in /  0.0 mm
13:10 79.5 °F /  26.4 °C 63.9 °F /  17.7 °C 30.2 in /  1020.9 hPa West 6 mph /  9.7 km/h 6 mph /  9.7 km/h 59 % 0 in /  0.0 mm
13:15 80.1 °F /  26.7 °C 64 °F /  17.8 °C 30.1 in /  1019.9 hPa WSW 2.3 mph /  3.7 km/h 2.3 mph /  3.7 km/h 58 % 0 in /  0.0 mm
13:20 80.8 °F /  27.1 °C 63.7 °F /  17.6 °C 30.1 in /  1019.9 hPa WSW 3.8 mph /  6.1 km/h 3.8 mph /  6.1 km/h 56 % 0 in /  0.0 mm
13:25 81 °F /  27.2 °C 63.9 °F /  17.7 °C 30.1 in /  1019.9 hPa SW 6.9 mph /  11.1 km/h 6.9 mph /  11.1 km/h 56 % 0 in /  0.0 mm
13:26 81 °F /  27.2 °C 63.9 °F /  17.7 °C 30.1 in /  1019.9 hPa SW 3.5 mph /  5.6 km/h 3.5 mph /  5.6 km/h 56 % 0 in /  0.0 mm
13:36 81 °F /  27.2 °C 62.8 °F /  17.1 °C 30.1 in /  1019.9 hPa ESE 2.3 mph /  3.7 km/h 2.3 mph /  3.7 km/h 54 % 0 in /  0.0 mm
13:41 81.1 °F /  27.3 °C 63 °F /  17.2 °C 30.1 in /  1019.9 hPa SW 5.9 mph /  9.5 km/h 5.9 mph /  9.5 km/h 54 % 0 in /  0.0 mm
13:46 81 °F /  27.2 °C 62.8 °F /  17.1 °C 30.1 in /  1019.9 hPa SSW 5.8 mph /  9.3 km/h 5.8 mph /  9.3 km/h 54 % 0 in /  0.0 mm
13:51 81.7 °F /  27.6 °C 63 °F /  17.2 °C 30.1 in /  1019.9 hPa South 3.5 mph /  5.6 km/h 3.5 mph /  5.6 km/h 53 % 0 in /  0.0 mm
13:56 82.4 °F /  28.0 °C 63.5 °F /  17.5 °C 30.1 in /  1019.9 hPa South 5.8 mph /  9.3 km/h 5.8 mph /  9.3 km/h 53 % 0 in /  0.0 mm
14:01 81.7 °F /  27.6 °C 62.2 °F /  16.8 °C 30.1 in /  1019.9 hPa West 6.9 mph /  11.1 km/h 6.9 mph /  11.1 km/h 52 % 0 in /  0.0 mm
14:06 82 °F /  27.8 °C 62.8 °F /  17.1 °C 30.1 in /  1019.9 hPa WSW 2.3 mph /  3.7 km/h 2.3 mph /  3.7 km/h 52 % 0 in /  0.0 mm
14:08 82.8 °F /  28.2 °C 63.3 °F /  17.4 °C 30.1 in /  1019.9 hPa SW 5.6 mph /  9.0 km/h 5.6 mph /  9.0 km/h 52 % 0 in /  0.0 mm
14:13 82.6 °F /  28.1 °C 63.1 °F /  17.3 °C 30.1 in /  1019.9 hPa SSW 3.5 mph /  5.6 km/h 3.5 mph /  5.6 km/h 52 % 0 in /  0.0 mm
14:18 82.9 °F /  28.3 °C 63 °F /  17.2 °C 30.1 in /  1019.9 hPa South 3.5 mph /  5.6 km/h 3.5 mph /  5.6 km/h 51 % 0 in /  0.0 mm
14:23 82.6 °F /  28.1 °C 62.6 °F /  17.0 °C 30.1 in /  1019.9 hPa SSW 5.8 mph /  9.3 km/h 5.8 mph /  9.3 km/h 51 % 0 in /  0.0 mm
14:28 82.8 °F /  28.2 °C 62.8 °F /  17.1 °C 30.1 in /  1019.9 hPa SSE 9.2 mph /  14.8 km/h 9.2 mph /  14.8 km/h 51 % 0 in /  0.0 mm
14:33 82.2 °F /  27.9 °C 62.8 °F /  17.1 °C 30.1 in /  1019.9 hPa SSE 10.4 mph /  16.7 km/h 10.4 mph /  16.7 km/h 52 % 0 in /  0.0 mm
14:38 82.9 °F /  28.3 °C 63.5 °F /  17.5 °C 30.1 in /  1019.9 hPa SSW 8.1 mph /  13.0 km/h 8.1 mph /  13.0 km/h 52 % 0 in /  0.0 mm
14:43 82 °F /  27.8 °C 62.8 °F /  17.1 °C 30.1 in /  1019.9 hPa SSW 4.6 mph /  7.4 km/h 4.6 mph /  7.4 km/h 52 % 0 in /  0.0 mm
14:48 83.1 °F /  28.4 °C 63.7 °F /  17.6 °C 30.1 in /  1018.8 hPa SW 6.9 mph /  11.1 km/h 6.9 mph /  11.1 km/h 52 % 0 in /  0.0 mm
14:53 82.9 °F /  28.3 °C 63.5 °F /  17.5 °C 30.1 in /  1018.8 hPa West 5.8 mph /  9.3 km/h 5.8 mph /  9.3 km/h 52 % 0 in /  0.0 mm
14:58 82.9 °F /  28.3 °C 63.5 °F /  17.5 °C 30.1 in /  1018.8 hPa SW 5.9 mph /  9.5 km/h 5.9 mph /  9.5 km/h 52 % 0 in /  0.0 mm
15:03 83.5 °F /  28.6 °C 64 °F /  17.8 °C 30.1 in /  1018.8 hPa WSW 4.6 mph /  7.4 km/h 4.6 mph /  7.4 km/h 52 % 0 in /  0.0 mm
15:08 83.1 °F /  28.4 °C 63.1 °F /  17.3 °C 30.1 in /  1018.8 hPa SW 6.9 mph /  11.1 km/h 6.9 mph /  11.1 km/h 51 % 0 in /  0.0 mm
15:13 83.1 °F /  28.4 °C 63.1 °F /  17.3 °C 30.1 in /  1018.8 hPa West 6.9 mph /  11.1 km/h 6.9 mph /  11.1 km/h 51 % 0 in /  0.0 mm
15:18 83.1 °F /  28.4 °C 63.1 °F /  17.3 °C 30.1 in /  1018.8 hPa WSW 7.4 mph /  11.9 km/h 7.4 mph /  11.9 km/h 51 % 0 in /  0.0 mm
15:23 83.5 °F /  28.6 °C 63.3 °F /  17.4 °C 30.1 in /  1018.8 hPa SW 8.1 mph /  13.0 km/h 8.1 mph /  13.0 km/h 51 % 0 in /  0.0 mm
15:33 82.9 °F /  28.3 °C 63 °F /  17.2 °C 30.1 in /  1018.8 hPa SW 8.1 mph /  13.0 km/h 8.1 mph /  13.0 km/h 51 % 0 in /  0.0 mm
15:38 83.3 °F /  28.5 °C 63.9 °F /  17.7 °C 30.1 in /  1018.8 hPa South 4.6 mph /  7.4 km/h 4.6 mph /  7.4 km/h 52 % 0 in /  0.0 mm
15:43 83.3 °F /  28.5 °C 63.3 °F /  17.4 °C 30.1 in /  1018.8 hPa WSW 6.9 mph /  11.1 km/h 6.9 mph /  11.1 km/h 51 % 0 in /  0.0 mm
15:58 82.9 °F /  28.3 °C 63 °F /  17.2 °C 30.1 in /  1018.8 hPa SW 4.6 mph /  7.4 km/h 4.6 mph /  7.4 km/h 51 % 0 in /  0.0 mm
16:03 82.9 °F /  28.3 °C 63.5 °F /  17.5 °C 30.1 in /  1018.8 hPa SW 5.8 mph /  9.3 km/h 5.8 mph /  9.3 km/h 52 % 0 in /  0.0 mm
16:08 82.4 °F /  28.0 °C 63 °F /  17.2 °C 30.1 in /  1018.8 hPa WSW 9.2 mph /  14.8 km/h 9.2 mph /  14.8 km/h 52 % 0 in /  0.0 mm
16:13 82 °F /  27.8 °C 62.8 °F /  17.1 °C 30.1 in /  1018.8 hPa SW 5.8 mph /  9.3 km/h 5.8 mph /  9.3 km/h 52 % 0 in /  0.0 mm
16:18 82.2 °F /  27.9 °C 62.8 °F /  17.1 °C 30.1 in /  1018.8 hPa SSW 8.7 mph /  14.0 km/h 8.7 mph /  14.0 km/h 52 % 0 in /  0.0 mm
16:23 82 °F /  27.8 °C 62.8 °F /  17.1 °C 30.1 in /  1018.8 hPa SW 9.2 mph /  14.8 km/h 9.2 mph /  14.8 km/h 52 % 0 in /  0.0 mm
16:28 81.5 °F /  27.5 °C 62.2 °F /  16.8 °C 30.1 in /  1018.8 hPa SSW 11.5 mph /  18.5 km/h 11.5 mph /  18.5 km/h 52 % 0 in /  0.0 mm
16:33 81.5 °F /  27.5 °C 62.8 °F /  17.1 °C 30.1 in /  1018.8 hPa WSW 6 mph /  9.7 km/h 6 mph /  9.7 km/h 53 % 0 in /  0.0 mm
16:38 81.7 °F /  27.6 °C 63 °F /  17.2 °C 30.1 in /  1018.8 hPa South 4.6 mph /  7.4 km/h 4.6 mph /  7.4 km/h 53 % 0 in /  0.0 mm
16:43 80.8 °F /  27.1 °C 62.1 °F /  16.7 °C 30.1 in /  1018.8 hPa SW 10.4 mph /  16.7 km/h 10.4 mph /  16.7 km/h 53 % 0 in /  0.0 mm
16:48 81.1 °F /  27.3 °C 63 °F /  17.2 °C 30.1 in /  1018.8 hPa SW 7.4 mph /  11.9 km/h 7.4 mph /  11.9 km/h 54 % 0 in /  0.0 mm
16:49 81.1 °F /  27.3 °C 63 °F /  17.2 °C 30.1 in /  1018.8 hPa SSW 6.9 mph /  11.1 km/h 6.9 mph /  11.1 km/h 54 % 0 in /  0.0 mm
16:54 80.6 °F /  27.0 °C 62.4 °F /  16.9 °C 30.1 in /  1018.8 hPa SSW 8.1 mph /  13.0 km/h 8.1 mph /  13.0 km/h 54 % 0 in /  0.0 mm
16:59 80.6 °F /  27.0 °C 62.4 °F /  16.9 °C 30.1 in /  1018.8 hPa SSE 6.9 mph /  11.1 km/h 6.9 mph /  11.1 km/h 54 % 0 in /  0.0 mm
17:04 80.6 °F /  27.0 °C 62.4 °F /  16.9 °C 30.1 in /  1018.8 hPa West 8.1 mph /  13.0 km/h 8.1 mph /  13.0 km/h 54 % 0 in /  0.0 mm
17:14 80.4 °F /  26.9 °C 63.3 °F /  17.4 °C 30.1 in /  1018.8 hPa SW 6.9 mph /  11.1 km/h 6.9 mph /  11.1 km/h 56 % 0 in /  0.0 mm
17:19 79.9 °F /  26.6 °C 62.8 °F /  17.1 °C 30.1 in /  1018.8 hPa West 8.1 mph /  13.0 km/h 8.1 mph /  13.0 km/h 56 % 0 in /  0.0 mm
17:24 79.9 °F /  26.6 °C 62.8 °F /  17.1 °C 30.1 in /  1018.8 hPa West 10.4 mph /  16.7 km/h 10.4 mph /  16.7 km/h 56 % 0 in /  0.0 mm
17:29 79.9 °F /  26.6 °C 62.8 °F /  17.1 °C 30.1 in /  1017.8 hPa SW 6 mph /  9.7 km/h 6 mph /  9.7 km/h 56 % 0 in /  0.0 mm
17:34 79.9 °F /  26.6 °C 62.8 °F /  17.1 °C 30.1 in /  1017.8 hPa WSW 5.8 mph /  9.3 km/h 5.8 mph /  9.3 km/h 56 % 0 in /  0.0 mm
17:39 79.5 °F /  26.4 °C 63 °F /  17.2 °C 30.1 in /  1017.8 hPa WSW 8.1 mph /  13.0 km/h 8.1 mph /  13.0 km/h 57 % 0 in /  0.0 mm
17:44 79.5 °F /  26.4 °C 63 °F /  17.2 °C 30.1 in /  1017.8 hPa SW 9.2 mph /  14.8 km/h 9.2 mph /  14.8 km/h 57 % 0 in /  0.0 mm
17:49 79.2 °F /  26.2 °C 62.6 °F /  17.0 °C 30.1 in /  1017.8 hPa WSW 8.1 mph /  13.0 km/h 8.1 mph /  13.0 km/h 57 % 0 in /  0.0 mm
17:54 79 °F /  26.1 °C 63 °F /  17.2 °C 30.1 in /  1017.8 hPa SW 6.9 mph /  11.1 km/h 6.9 mph /  11.1 km/h 58 % 0 in /  0.0 mm
17:59 79 °F /  26.1 °C 63 °F /  17.2 °C 30.1 in /  1017.8 hPa SSW 5.8 mph /  9.3 km/h 5.8 mph /  9.3 km/h 58 % 0 in /  0.0 mm
18:04 78.8 °F /  26.0 °C 62.8 °F /  17.1 °C 30.1 in /  1017.8 hPa SSW 4.6 mph /  7.4 km/h 4.6 mph /  7.4 km/h 58 % 0 in /  0.0 mm
18:09 78.3 °F /  25.7 °C 62.8 °F /  17.1 °C 30.1 in /  1017.8 hPa SW 6.9 mph /  11.1 km/h 6.9 mph /  11.1 km/h 59 % 0 in /  0.0 mm
18:14 78.1 °F /  25.6 °C 62.6 °F /  17.0 °C 30.1 in /  1017.8 hPa West 6.9 mph /  11.1 km/h 6.9 mph /  11.1 km/h 59 % 0 in /  0.0 mm
18:19 78.3 °F /  25.7 °C 62.8 °F /  17.1 °C 30.1 in /  1017.8 hPa SW 4.9 mph /  7.9 km/h 4.9 mph /  7.9 km/h 59 % 0 in /  0.0 mm
18:24 77.9 °F /  25.5 °C 62.4 °F /  16.9 °C 30.1 in /  1017.8 hPa SSW 5.9 mph /  9.5 km/h 5.9 mph /  9.5 km/h 59 % 0 in /  0.0 mm
18:29 77.4 °F /  25.2 °C 62.4 °F /  16.9 °C 30.1 in /  1017.8 hPa WSW 6.9 mph /  11.1 km/h 6.9 mph /  11.1 km/h 60 % 0 in /  0.0 mm
18:34 77.2 °F /  25.1 °C 62.2 °F /  16.8 °C 30.1 in /  1017.8 hPa SW 4.6 mph /  7.4 km/h 4.6 mph /  7.4 km/h 60 % 0 in /  0.0 mm
18:39 77 °F /  25.0 °C 62.1 °F /  16.7 °C 30.1 in /  1017.8 hPa West 5.8 mph /  9.3 km/h 5.8 mph /  9.3 km/h 60 % 0 in /  0.0 mm
18:44 76.8 °F /  24.9 °C 62.8 °F /  17.1 °C 30 in /  1016.8 hPa SW 5.8 mph /  9.3 km/h 5.8 mph /  9.3 km/h 62 % 0 in /  0.0 mm
18:49 76.5 °F /  24.7 °C 62.4 °F /  16.9 °C 30 in /  1016.8 hPa SW 5.4 mph /  8.7 km/h 5.4 mph /  8.7 km/h 62 % 0 in /  0.0 mm
18:54 75.9 °F /  24.4 °C 62.4 °F /  16.9 °C 30 in /  1016.8 hPa SSW 5.8 mph /  9.3 km/h 5.8 mph /  9.3 km/h 63 % 0 in /  0.0 mm
18:59 75.7 °F /  24.3 °C 62.2 °F /  16.8 °C 30.1 in /  1017.8 hPa SW 5.8 mph /  9.3 km/h 5.8 mph /  9.3 km/h 63 % 0 in /  0.0 mm
19:04 75.2 °F /  24.0 °C 61.7 °F /  16.5 °C 30.1 in /  1017.8 hPa WSW 5.8 mph /  9.3 km/h 5.8 mph /  9.3 km/h 63 % 0 in /  0.0 mm
19:09 74.8 °F /  23.8 °C 62.2 °F /  16.8 °C 30.1 in /  1017.8 hPa SW 5.8 mph /  9.3 km/h 5.8 mph /  9.3 km/h 65 % 0 in /  0.0 mm
19:14 74.5 °F /  23.6 °C 61.9 °F /  16.6 °C 30.1 in /  1017.8 hPa SW 5.8 mph /  9.3 km/h 5.8 mph /  9.3 km/h 65 % 0 in /  0.0 mm
19:19 74.1 °F /  23.4 °C 62.1 °F /  16.7 °C 30.1 in /  1017.8 hPa SW 5.8 mph /  9.3 km/h 5.8 mph /  9.3 km/h 66 % 0 in /  0.0 mm
19:20 67.6 °F /  19.8 °C 63 °F /  17.2 °C 30.1 in /  1017.8 hPa WSW 1 mph /  1.6 km/h 2 mph /  3.2 km/h 85 % 0 in /  0.0 mm
19:24 73.8 °F /  23.2 °C 61.7 °F /  16.5 °C 30.1 in /  1017.8 hPa WSW 2.4 mph /  3.9 km/h 3.6 mph /  5.8 km/h 66 % 0 in /  0.0 mm
19:29 73.4 °F /  23.0 °C 61.9 °F /  16.6 °C 30.1 in /  1017.8 hPa SW 5.8 mph /  9.3 km/h 5.8 mph /  9.3 km/h 67 % 0 in /  0.0 mm
19:30 67.5 °F /  19.7 °C 63.1 °F /  17.3 °C 30.1 in /  1017.8 hPa WSW 1 mph /  1.6 km/h 1 mph /  1.6 km/h 86 % 0 in /  0.0 mm
19:34 73 °F /  22.8 °C 61.9 °F /  16.6 °C 30.1 in /  1017.8 hPa SW 5.8 mph /  9.3 km/h 5.8 mph /  9.3 km/h 68 % 0 in /  0.0 mm
19:39 72.7 °F /  22.6 °C 61.5 °F /  16.4 °C 30.1 in /  1017.8 hPa West 5.8 mph /  9.3 km/h 5.8 mph /  9.3 km/h 68 % 0 in /  0.0 mm
19:40 67.1 °F /  19.5 °C 62.8 °F /  17.1 °C 30.1 in /  1017.8 hPa Calm     86 % 0 in /  0.0 mm
19:44 72.5 °F /  22.5 °C 61.7 °F /  16.5 °C 30.1 in /  1018.8 hPa South 5.8 mph /  9.3 km/h 5.8 mph /  9.3 km/h 69 % 0 in /  0.0 mm
19:49 72.1 °F /  22.3 °C 61.9 °F /  16.6 °C 30.1 in /  1018.8 hPa SSW 3.5 mph /  5.6 km/h 3.5 mph /  5.6 km/h 70 % 0 in /  0.0 mm
19:50 66.6 °F /  19.2 °C 62.2 °F /  16.8 °C 30.1 in /  1017.8 hPa Calm   2 mph /  3.2 km/h 86 % 0 in /  0.0 mm
19:54 71.8 °F /  22.1 °C 61.5 °F /  16.4 °C 30.1 in /  1018.8 hPa SW 5.8 mph /  9.3 km/h 5.8 mph /  9.3 km/h 70 % 0 in /  0.0 mm
19:59 71.6 °F /  22.0 °C 61.7 °F /  16.5 °C 30.1 in /  1017.8 hPa SW 6.9 mph /  11.1 km/h 6.9 mph /  11.1 km/h 71 % 0 in /  0.0 mm
20:00 66.4 °F /  19.1 °C 62.1 °F /  16.7 °C 30.1 in /  1017.8 hPa Calm   1 mph /  1.6 km/h 86 % 0 in /  0.0 mm
20:04 71.2 °F /  21.8 °C 62.1 °F /  16.7 °C 30.1 in /  1017.8 hPa SSW 6.2 mph /  10.0 km/h 6.2 mph /  10.0 km/h 73 % 0 in /  0.0 mm
20:09 70.9 °F /  21.6 °C 61.9 °F /  16.6 °C 30.1 in /  1017.8 hPa WSW 9.2 mph /  14.8 km/h 9.2 mph /  14.8 km/h 73 % 0 in /  0.0 mm
20:10 66.4 °F /  19.1 °C 62.4 °F /  16.9 °C 30.1 in /  1017.8 hPa Calm   1 mph /  1.6 km/h 87 % 0 in /  0.0 mm
20:14 70.7 °F /  21.5 °C 61.5 °F /  16.4 °C 30.1 in /  1018.8 hPa WSW 6.9 mph /  11.1 km/h 6.9 mph /  11.1 km/h 73 % 0 in /  0.0 mm
20:19 70.5 °F /  21.4 °C 61.9 °F /  16.6 °C 30.1 in /  1018.8 hPa WSW 5.8 mph /  9.3 km/h 5.8 mph /  9.3 km/h 74 % 0 in /  0.0 mm
20:20 66.4 °F /  19.1 °C 62.4 °F /  16.9 °C 30.1 in /  1017.8 hPa Calm     87 % 0 in /  0.0 mm
20:24 70.3 °F /  21.3 °C 61.7 °F /  16.5 °C 30.1 in /  1018.8 hPa WSW 4.6 mph /  7.4 km/h 4.6 mph /  7.4 km/h 74 % 0 in /  0.0 mm
20:29 70.2 °F /  21.2 °C 61.9 °F /  16.6 °C 30.1 in /  1018.8 hPa SW 4.7 mph /  7.6 km/h 4.7 mph /  7.6 km/h 75 % 0 in /  0.0 mm
20:30 66.6 °F /  19.2 °C 63 °F /  17.2 °C 30.1 in /  1017.8 hPa Calm   1 mph /  1.6 km/h 88 % 0 in /  0.0 mm
20:34 70.2 °F /  21.2 °C 61.9 °F /  16.6 °C 30.1 in /  1018.8 hPa SW 5.8 mph /  9.3 km/h 5.8 mph /  9.3 km/h 75 % 0 in /  0.0 mm
20:39 70 °F /  21.1 °C 61.7 °F /  16.5 °C 30.1 in /  1018.8 hPa SW 5.8 mph /  9.3 km/h 5.8 mph /  9.3 km/h 75 % 0 in /  0.0 mm
20:40 66.6 °F /  19.2 °C 63 °F /  17.2 °C 30.1 in /  1017.8 hPa Calm   1 mph /  1.6 km/h 88 % 0 in /  0.0 mm
20:44 69.8 °F /  21.0 °C 61.5 °F /  16.4 °C 30.1 in /  1018.8 hPa SW 3.5 mph /  5.6 km/h 3.5 mph /  5.6 km/h 75 % 0 in /  0.0 mm
20:49 69.8 °F /  21.0 °C 61.9 °F /  16.6 °C 30.1 in /  1018.8 hPa WSW 2.3 mph /  3.7 km/h 2.3 mph /  3.7 km/h 76 % 0 in /  0.0 mm
20:50 66.6 °F /  19.2 °C 63 °F /  17.2 °C 30.1 in /  1017.8 hPa Calm   1 mph /  1.6 km/h 88 % 0 in /  0.0 mm
20:54 69.6 °F /  20.9 °C 62.1 °F /  16.7 °C 30.1 in /  1018.8 hPa WSW 2.3 mph /  3.7 km/h 2.3 mph /  3.7 km/h 77 % 0 in /  0.0 mm
20:59 69.4 °F /  20.8 °C 61.9 °F /  16.6 °C 30.1 in /  1018.8 hPa West 3.5 mph /  5.6 km/h 3.5 mph /  5.6 km/h 77 % 0 in /  0.0 mm
21:00 66.6 °F /  19.2 °C 63 °F /  17.2 °C 30.1 in /  1017.8 hPa Calm     88 % 0 in /  0.0 mm
21:04 69.4 °F /  20.8 °C 61.9 °F /  16.6 °C 30.1 in /  1018.8 hPa WSW 3.5 mph /  5.6 km/h 3.5 mph /  5.6 km/h 77 % 0 in /  0.0 mm
21:09 69.4 °F /  20.8 °C 61.9 °F /  16.6 °C 30.1 in /  1018.8 hPa WSW 4 mph /  6.4 km/h 4 mph /  6.4 km/h 77 % 0 in /  0.0 mm
21:10 66.6 °F /  19.2 °C 63 °F /  17.2 °C 30.1 in /  1017.8 hPa Calm   2 mph /  3.2 km/h 88 % 0 in /  0.0 mm
21:14 69.3 °F /  20.7 °C 62.1 °F /  16.7 °C 30.1 in /  1018.8 hPa WSW 2.4 mph /  3.9 km/h 2.4 mph /  3.9 km/h 78 % 0 in /  0.0 mm
21:19 69.1 °F /  20.6 °C 61.9 °F /  16.6 °C 30.1 in /  1018.8 hPa West 3.5 mph /  5.6 km/h 3.5 mph /  5.6 km/h 78 % 0 in /  0.0 mm
21:20 66.4 °F /  19.1 °C 62.8 °F /  17.1 °C 30.1 in /  1017.8 hPa Calm   3 mph /  4.8 km/h 88 % 0 in /  0.0 mm
21:24 69.1 °F /  20.6 °C 61.9 °F /  16.6 °C 30.1 in /  1018.8 hPa SW 3.5 mph /  5.6 km/h 3.5 mph /  5.6 km/h 78 % 0 in /  0.0 mm
21:29 68.9 °F /  20.5 °C 61.9 °F /  16.6 °C 30.1 in /  1018.8 hPa West 3.5 mph /  5.6 km/h 3.5 mph /  5.6 km/h 78 % 0 in /  0.0 mm
21:30 66.4 °F /  19.1 °C 62.8 °F /  17.1 °C 30.1 in /  1017.8 hPa Calm   1 mph /  1.6 km/h 88 % 0 in /  0.0 mm
21:34 68.9 °F /  20.5 °C 62.1 °F /  16.7 °C 30.1 in /  1018.8 hPa WSW 2.9 mph /  4.7 km/h 2.9 mph /  4.7 km/h 79 % 0 in /  0.0 mm
21:39 68.7 °F /  20.4 °C 61.9 °F /  16.6 °C 30.1 in /  1018.8 hPa SW 4.6 mph /  7.4 km/h 4.6 mph /  7.4 km/h 79 % 0 in /  0.0 mm
21:40 66.4 °F /  19.1 °C 62.8 °F /  17.1 °C 30.1 in /  1017.8 hPa Calm   1 mph /  1.6 km/h 88 % 0 in /  0.0 mm
21:44 68.7 °F /  20.4 °C 61.9 °F /  16.6 °C 30.1 in /  1018.8 hPa SW 4.6 mph /  7.4 km/h 4.6 mph /  7.4 km/h 79 % 0 in /  0.0 mm
21:49 68.7 °F /  20.4 °C 62.2 °F /  16.8 °C 30.1 in /  1018.8 hPa West 3.6 mph /  5.8 km/h 3.6 mph /  5.8 km/h 80 % 0 in /  0.0 mm
21:50 66.4 °F /  19.1 °C 62.8 °F /  17.1 °C 30 in /  1016.8 hPa NNW 1 mph /  1.6 km/h 2 mph /  3.2 km/h 88 % 0 in /  0.0 mm
21:54 68.5 °F /  20.3 °C 62.1 °F /  16.7 °C 30.1 in /  1018.8 hPa WSW 4.6 mph /  7.4 km/h 4.6 mph /  7.4 km/h 80 % 0 in /  0.0 mm
21:59 68.5 °F /  20.3 °C 62.1 °F /  16.7 °C 30.1 in /  1018.8 hPa SW 4.6 mph /  7.4 km/h 4.6 mph /  7.4 km/h 80 % 0 in /  0.0 mm
22:00 66.4 °F /  19.1 °C 62.8 °F /  17.1 °C 30.1 in /  1017.8 hPa Calm   3 mph /  4.8 km/h 88 % 0 in /  0.0 mm
22:04 68.5 °F /  20.3 °C 62.1 °F /  16.7 °C 30.1 in /  1018.8 hPa WSW 4.6 mph /  7.4 km/h 4.6 mph /  7.4 km/h 80 % 0 in /  0.0 mm
22:09 68.4 °F /  20.2 °C 62.2 °F /  16.8 °C 30.1 in /  1018.8 hPa WSW 3.5 mph /  5.6 km/h 3.5 mph /  5.6 km/h 81 % 0 in /  0.0 mm
22:10 66.4 °F /  19.1 °C 62.8 °F /  17.1 °C 30.1 in /  1017.8 hPa Calm   2 mph /  3.2 km/h 88 % 0 in /  0.0 mm
22:14 68.4 °F /  20.2 °C 62.2 °F /  16.8 °C 30.1 in /  1018.8 hPa WSW 2.3 mph /  3.7 km/h 2.3 mph /  3.7 km/h 81 % 0 in /  0.0 mm
22:19 68.4 °F /  20.2 °C 62.2 °F /  16.8 °C 30.1 in /  1018.8 hPa SW 5.8 mph /  9.3 km/h 5.8 mph /  9.3 km/h 81 % 0 in /  0.0 mm
22:20 66.4 °F /  19.1 °C 62.8 °F /  17.1 °C 30 in /  1016.8 hPa Calm   1 mph /  1.6 km/h 88 % 0 in /  0.0 mm
22:24 68.4 °F /  20.2 °C 62.6 °F /  17.0 °C 30.1 in /  1018.8 hPa West 1.2 mph /  1.9 km/h   82 % 0 in /  0.0 mm
22:29 68.2 °F /  20.1 °C 62.4 °F /  16.9 °C 30.1 in /  1018.8 hPa WSW 2.3 mph /  3.7 km/h 2.3 mph /  3.7 km/h 82 % 0 in /  0.0 mm
22:30 66.2 °F /  19.0 °C 62.4 °F /  16.9 °C 30.1 in /  1017.8 hPa NNW 1 mph /  1.6 km/h 2 mph /  3.2 km/h 88 % 0 in /  0.0 mm
22:34 68.2 °F /  20.1 °C 62.4 °F /  16.9 °C 30.1 in /  1018.8 hPa SW 2.3 mph /  3.7 km/h   82 % 0 in /  0.0 mm
22:40 66.2 °F /  19.0 °C 62.4 °F /  16.9 °C 30.1 in /  1017.8 hPa Calm   2 mph /  3.2 km/h 88 % 0 in /  0.0 mm
22:49 68 °F /  20.0 °C 62.2 °F /  16.8 °C 30.1 in /  1018.8 hPa West 4.6 mph /  7.4 km/h 4.6 mph /  7.4 km/h 82 % 0 in /  0.0 mm
22:50 66.2 °F /  19.0 °C 62.4 °F /  16.9 °C 30.1 in /  1017.8 hPa NW 1 mph /  1.6 km/h 1 mph /  1.6 km/h 88 % 0 in /  0.0 mm
22:54 68 °F /  20.0 °C 62.2 °F /  16.8 °C 30.1 in /  1018.8 hPa West 2.3 mph /  3.7 km/h 2.3 mph /  3.7 km/h 82 % 0 in /  0.0 mm
22:59 68 °F /  20.0 °C 62.2 °F /  16.8 °C 30.1 in /  1018.8 hPa WSW 2.3 mph /  3.7 km/h 2.3 mph /  3.7 km/h 82 % 0 in /  0.0 mm
23:00 66.4 °F /  19.1 °C 62.8 °F /  17.1 °C 30 in /  1016.8 hPa Calm     88 % 0 in /  0.0 mm
23:04 68 °F /  20.0 °C 62.6 °F /  17.0 °C 30.1 in /  1018.8 hPa SW 1.2 mph /  1.9 km/h 1.2 mph /  1.9 km/h 83 % 0 in /  0.0 mm
23:09 67.8 °F /  19.9 °C 62.8 °F /  17.1 °C 30.1 in /  1018.8 hPa West 2.3 mph /  3.7 km/h 2.3 mph /  3.7 km/h 84 % 0 in /  0.0 mm
23:10 66.4 °F /  19.1 °C 62.8 °F /  17.1 °C 30 in /  1016.8 hPa North 1 mph /  1.6 km/h 2 mph /  3.2 km/h 88 % 0 in /  0.0 mm
23:14 68 °F /  20.0 °C 62.6 °F /  17.0 °C 30.1 in /  1018.8 hPa WSW 2.6 mph /  4.2 km/h 2.6 mph /  4.2 km/h 83 % 0 in /  0.0 mm
23:19 67.8 °F /  19.9 °C 62.8 °F /  17.1 °C 30.1 in /  1018.8 hPa SW 3.5 mph /  5.6 km/h 3.5 mph /  5.6 km/h 84 % 0 in /  0.0 mm
23:20 66.4 °F /  19.1 °C 62.8 °F /  17.1 °C 30.1 in /  1017.8 hPa North 1 mph /  1.6 km/h 2 mph /  3.2 km/h 88 % 0 in /  0.0 mm
23:29 67.6 °F /  19.8 °C 63 °F /  17.2 °C 30.1 in /  1018.8 hPa SW 1.2 mph /  1.9 km/h 1.2 mph /  1.9 km/h 85 % 0 in /  0.0 mm
23:30 66.2 °F /  19.0 °C 62.2 °F /  16.8 °C 30 in /  1016.8 hPa NNW 1 mph /  1.6 km/h 2 mph /  3.2 km/h 87 % 0 in /  0.0 mm
23:34 67.8 °F /  19.9 °C 63.1 °F /  17.3 °C 30.1 in /  1018.8 hPa SW 1.2 mph /  1.9 km/h   85 % 0 in /  0.0 mm
23:40 66 °F /  18.9 °C 62.1 °F /  16.7 °C 30 in /  1016.8 hPa NNW 2 mph /  3.2 km/h 3 mph /  4.8 km/h 87 % 0 in /  0.0 mm
23:44 67.8 °F /  19.9 °C 62.8 °F /  17.1 °C 30.1 in /  1017.8 hPa West 2.6 mph /  4.2 km/h 2.6 mph /  4.2 km/h 84 % 0 in /  0.0 mm
23:49 67.8 °F /  19.9 °C 63.1 °F /  17.3 °C 30.1 in /  1017.8 hPa West 3.5 mph /  5.6 km/h 3.5 mph /  5.6 km/h 85 % 0 in /  0.0 mm
23:50 65.5 °F /  18.6 °C 61.5 °F /  16.4 °C 30.1 in /  1017.8 hPa NW 3 mph /  4.8 km/h 4 mph /  6.4 km/h 87 % 0 in /  0.0 mm
23:54 67.8 °F /  19.9 °C 63.1 °F /  17.3 °C 30.1 in /  1017.8 hPa West 2.3 mph /  3.7 km/h 2.3 mph /  3.7 km/h 85 % 0 in /  0.0 mm
23:59 67.8 °F /  19.9 °C 63.1 °F /  17.3 °C 30.1 in /  1018.8 hPa WNW 2.3 mph /  3.7 km/h 2.3 mph /  3.7 km/h 85 % 0 in /  0.0 mm
Meteo Sesrovires
Elogis d' Weather Underground - 3.5 mb

Guio original per  Jim McMurry - jmcmurry@mwt.net Adaptat per a la plantilla per  Wim van der Kuil - Leuven-Template.eu

Trobareu la nostra informacio del temps tambe a:

Weather Underground

AWEKAS